Time;durP1;ratioP1;P1;durP2;ratioP2;P2;SDS_P1;SDS_P2;PMS_P1;PMS_P2;Temp;Humidity;BMP_temperature;BMP_pressure;BME280_temperature;BME280_humidity;BME280_pressure;Samples;Min_cycle;Max_cycle;Signal;HPM_P1;HPM_P2
2023/06/28 00:02:13;;;;;;;6.40;3.40;;;;;;;;;;4973734;28;20623;-77
2023/06/28 00:04:40;;;;;;;5.33;3.20;;;;;;;;;;4975885;28;20238;-78
2023/06/28 00:07:08;;;;;;;5.37;3.00;;;;;;;;;;4975268;28;20245;-78
2023/06/28 00:09:36;;;;;;;6.40;3.37;;;;;;;;;;4975660;28;20203;-78
2023/06/28 00:12:03;;;;;;;5.63;3.07;;;;;;;;;;4975187;28;20260;-77
2023/06/28 00:14:31;;;;;;;5.47;3.20;;;;;;;;;;4976207;28;20237;-78
2023/06/28 00:16:59;;;;;;;4.63;3.30;;;;;;;;;;4995008;28;20586;-78
2023/06/28 00:19:27;;;;;;;4.13;2.90;;;;;;;;;;4995270;28;20209;-78
2023/06/28 00:21:54;;;;;;;7.90;2.90;;;;;;;;;;4995071;28;20710;-78
2023/06/28 00:24:21;;;;;;;4.93;2.90;;;;;;;;;;4995240;28;20221;-76
2023/06/28 00:26:49;;;;;;;4.60;3.40;;;;;;;;;;4994762;28;20233;-78
2023/06/28 00:29:16;;;;;;;4.33;3.13;;;;;;;;;;4994516;28;20281;-78
2023/06/28 00:31:44;;;;;;;6.93;3.03;;;;;;;;;;4994587;28;20244;-77
2023/06/28 00:34:12;;;;;;;4.17;2.97;;;;;;;;;;4994734;28;20689;-77
2023/06/28 00:36:39;;;;;;;4.87;3.30;;;;;;;;;;4994696;28;20194;-78
2023/06/28 00:39:06;;;;;;;6.57;3.10;;;;;;;;;;4994816;28;20292;-78
2023/06/28 00:41:33;;;;;;;5.17;2.90;;;;;;;;;;4994176;28;20225;-77
2023/06/28 00:44:00;;;;;;;4.07;3.03;;;;;;;;;;4994566;28;20718;-77
2023/06/28 00:46:27;;;;;;;5.07;3.20;;;;;;;;;;4994773;28;20194;-78
2023/06/28 00:48:56;;;;;;;7.10;3.70;;;;;;;;;;4994713;28;20204;-77
2023/06/28 00:51:23;;;;;;;5.63;3.27;;;;;;;;;;4994403;28;20297;-78
2023/06/28 00:53:50;;;;;;;6.00;3.40;;;;;;;;;;4994261;28;20305;-78
2023/06/28 00:56:18;;;;;;;5.13;3.10;;;;;;;;;;4994229;28;20304;-78
2023/06/28 00:58:45;;;;;;;7.47;3.30;;;;;;;;;;4994252;28;20320;-79
2023/06/28 01:01:12;;;;;;;5.90;3.20;;;;;;;;;;4994546;28;20331;-77
2023/06/28 01:03:39;;;;;;;4.80;3.10;;;;;;;;;;4994143;28;20321;-77
2023/06/28 01:06:12;;;;;;;5.60;3.03;;;;;;;;;;4994282;28;20259;-77
2023/06/28 01:08:39;;;;;;;5.03;3.47;;;;;;;;;;4993623;28;20816;-78
2023/06/28 01:11:07;;;;;;;6.67;3.47;;;;;;;;;;4994180;28;20204;-77
2023/06/28 01:13:35;;;;;;;3.57;3.17;;;;;;;;;;4992782;28;21320;-77
2023/06/28 01:16:03;;;;;;;5.17;3.10;;;;;;;;;;4994397;28;20289;-78
2023/06/28 01:18:33;;;;;;;6.17;2.93;;;;;;;;;;4994248;28;20202;-77
2023/06/28 01:21:01;;;;;;;4.10;3.10;;;;;;;;;;4994203;28;20202;-78
2023/06/28 01:23:31;;;;;;;7.90;3.40;;;;;;;;;;4994037;28;20295;-77
2023/06/28 01:26:02;;;;;;;5.83;3.70;;;;;;;;;;4993834;28;20253;-77
2023/06/28 01:28:30;;;;;;;6.93;3.70;;;;;;;;;;4993611;28;20202;-78
2023/06/28 01:30:59;;;;;;;6.17;3.10;;;;;;;;;;4993840;28;20277;-78
2023/06/28 01:33:27;;;;;;;5.00;2.97;;;;;;;;;;4993735;28;20260;-78
2023/06/28 01:35:54;;;;;;;5.10;3.40;;;;;;;;;;4994053;28;20206;-78
2023/06/28 01:38:22;;;;;;;5.70;3.60;;;;;;;;;;4993322;28;20285;-78
2023/06/28 01:40:53;;;;;;;5.67;3.37;;;;;;;;;;4993760;28;20244;-77
2023/06/28 01:43:20;;;;;;;6.03;3.70;;;;;;;;;;4993720;28;20940;-77
2023/06/28 01:45:49;;;;;;;6.40;4.00;;;;;;;;;;4993386;28;20284;-77
2023/06/28 01:48:17;;;;;;;5.47;3.20;;;;;;;;;;4993774;28;20198;-78
2023/06/28 01:50:44;;;;;;;6.53;3.27;;;;;;;;;;4993380;28;20202;-77
2023/06/28 01:53:12;;;;;;;4.60;3.17;;;;;;;;;;4993304;28;20193;-77
2023/06/28 01:55:39;;;;;;;5.67;3.47;;;;;;;;;;4993339;28;20297;-78
2023/06/28 01:58:07;;;;;;;4.93;3.17;;;;;;;;;;4993174;28;20202;-77
2023/06/28 02:00:35;;;;;;;7.63;3.40;;;;;;;;;;4993277;28;20198;-77
2023/06/28 02:03:02;;;;;;;4.77;3.27;;;;;;;;;;4993119;28;20328;-77
2023/06/28 02:05:29;;;;;;;7.37;3.57;;;;;;;;;;4993300;28;20268;-77
2023/06/28 02:07:56;;;;;;;6.70;3.40;;;;;;;;;;4993368;28;20198;-77
2023/06/28 02:10:24;;;;;;;7.33;3.20;;;;;;;;;;4993071;28;20280;-79
2023/06/28 02:12:51;;;;;;;6.17;3.43;;;;;;;;;;4992818;28;20671;-77
2023/06/28 02:15:21;;;;;;;5.20;3.60;;;;;;;;;;4993247;28;20790;-78
2023/06/28 02:17:55;;;;;;;5.63;3.40;;;;;;;;;;4993339;28;20225;-77
2023/06/28 02:20:22;;;;;;;5.93;3.40;;;;;;;;;;4992846;28;20620;-76
2023/06/28 02:22:49;;;;;;;5.80;3.20;;;;;;;;;;4992511;28;20421;-76
2023/06/28 02:25:16;;;;;;;8.97;3.73;;;;;;;;;;4992634;28;20221;-78
2023/06/28 02:27:43;;;;;;;4.57;3.50;;;;;;;;;;4992518;28;20644;-78
2023/06/28 02:30:11;;;;;;;5.30;3.40;;;;;;;;;;4992533;28;20634;-78
2023/06/28 02:32:39;;;;;;;10.60;3.63;;;;;;;;;;4992643;28;20288;-76
2023/06/28 02:35:07;;;;;;;8.73;3.70;;;;;;;;;;4992943;28;20225;-76
2023/06/28 02:37:34;;;;;;;6.20;3.60;;;;;;;;;;4991946;28;20662;-78
2023/06/28 02:40:01;;;;;;;5.00;3.43;;;;;;;;;;4992669;28;20285;-76
2023/06/28 02:42:28;;;;;;;7.17;3.90;;;;;;;;;;4992700;28;20721;-79
2023/06/28 02:44:55;;;;;;;6.00;3.93;;;;;;;;;;4992321;28;20296;-78
2023/06/28 02:47:23;;;;;;;7.20;3.47;;;;;;;;;;4992518;28;20209;-77
2023/06/28 02:49:51;;;;;;;7.93;3.60;;;;;;;;;;4992096;28;20289;-78
2023/06/28 02:52:18;;;;;;;7.03;3.83;;;;;;;;;;4992052;28;20790;-77
2023/06/28 02:54:45;;;;;;;6.03;4.30;;;;;;;;;;4992087;28;20628;-78
2023/06/28 02:57:13;;;;;;;6.50;3.50;;;;;;;;;;4992586;28;20663;-77
2023/06/28 02:59:40;;;;;;;6.47;3.67;;;;;;;;;;4992149;28;20233;-78
2023/06/28 03:02:07;;;;;;;5.93;3.60;;;;;;;;;;4991667;28;20328;-77
2023/06/28 03:04:39;;;;;;;8.27;3.93;;;;;;;;;;4992213;28;20229;-77
2023/06/28 03:07:08;;;;;;;4.77;4.17;;;;;;;;;;4992086;28;20288;-78
2023/06/28 03:09:35;;;;;;;7.03;3.70;;;;;;;;;;4992122;28;20233;-78
2023/06/28 03:12:02;;;;;;;5.47;4.03;;;;;;;;;;4991779;28;20551;-78
2023/06/28 03:14:29;;;;;;;6.53;3.57;;;;;;;;;;4991982;28;20766;-78
2023/06/28 03:16:56;;;;;;;5.37;3.97;;;;;;;;;;4991569;28;20697;-78
2023/06/28 03:19:24;;;;;;;5.87;3.50;;;;;;;;;;4991757;28;20276;-79
2023/06/28 03:21:51;;;;;;;6.90;3.80;;;;;;;;;;4992289;28;20297;-77
2023/06/28 03:24:19;;;;;;;5.77;3.60;;;;;;;;;;4991657;28;20284;-77
2023/06/28 03:26:47;;;;;;;6.33;3.63;;;;;;;;;;4992121;28;20205;-78
2023/06/28 03:29:14;;;;;;;6.03;4.20;;;;;;;;;;4991971;28;20561;-78
2023/06/28 03:31:41;;;;;;;8.93;4.10;;;;;;;;;;4991852;28;20256;-77
2023/06/28 03:34:08;;;;;;;5.97;3.87;;;;;;;;;;4991659;28;20197;-77
2023/06/28 03:36:35;;;;;;;6.87;3.90;;;;;;;;;;4992791;28;20280;-78
2023/06/28 03:39:02;;;;;;;6.80;4.20;;;;;;;;;;4995888;28;20200;-77
2023/06/28 03:41:31;;;;;;;6.77;3.90;;;;;;;;;;4995893;28;20284;-77
2023/06/28 03:43:58;;;;;;;7.47;4.13;;;;;;;;;;4995877;28;20316;-76
2023/06/28 03:46:25;;;;;;;6.37;4.00;;;;;;;;;;4995977;28;20285;-77
2023/06/28 03:48:52;;;;;;;6.33;4.10;;;;;;;;;;4988846;28;20202;-77
2023/06/28 03:51:20;;;;;;;6.03;4.27;;;;;;;;;;4976482;28;20202;-78
2023/06/28 03:53:47;;;;;;;6.50;4.10;;;;;;;;;;4976084;28;20285;-77
2023/06/28 03:56:14;;;;;;;5.63;4.40;;;;;;;;;;4976350;28;20305;-77
2023/06/28 03:58:42;;;;;;;6.83;4.77;;;;;;;;;;4976087;28;20301;-78
2023/06/28 04:01:10;;;;;;;5.63;4.13;;;;;;;;;;4975847;28;20289;-78
2023/06/28 04:03:37;;;;;;;6.07;4.37;;;;;;;;;;4975303;28;20245;-77
2023/06/28 04:06:05;;;;;;;10.20;4.90;;;;;;;;;;4975945;28;20285;-78
2023/06/28 04:08:32;;;;;;;7.53;4.80;;;;;;;;;;4975869;28;20214;-76
2023/06/28 04:10:59;;;;;;;9.43;4.40;;;;;;;;;;4975849;28;20294;-78
2023/06/28 04:13:26;;;;;;;7.83;5.30;;;;;;;;;;4975561;28;21009;-77
2023/06/28 04:15:55;;;;;;;8.67;5.97;;;;;;;;;;4987227;28;20683;-77
2023/06/28 04:18:22;;;;;;;6.80;4.93;;;;;;;;;;4994956;28;20312;-76
2023/06/28 04:20:49;;;;;;;7.20;5.17;;;;;;;;;;4994880;28;20748;-77
2023/06/28 04:23:16;;;;;;;8.47;5.03;;;;;;;;;;4994925;28;20998;-78
2023/06/28 04:25:44;;;;;;;8.43;5.27;;;;;;;;;;4994900;28;20296;-77
2023/06/28 04:28:11;;;;;;;8.07;4.37;;;;;;;;;;4994804;28;20738;-77
2023/06/28 04:30:38;;;;;;;9.50;5.23;;;;;;;;;;4995417;28;20198;-76
2023/06/28 04:33:07;;;;;;;6.63;4.20;;;;;;;;;;4994703;28;20205;-78
2023/06/28 04:35:35;;;;;;;7.33;4.00;;;;;;;;;;4994908;28;20194;-78
2023/06/28 04:38:03;;;;;;;9.40;4.93;;;;;;;;;;4994879;28;20200;-76
2023/06/28 04:40:31;;;;;;;9.10;4.50;;;;;;;;;;4994890;28;20202;-77
2023/06/28 04:42:58;;;;;;;7.37;4.90;;;;;;;;;;4994578;28;20230;-76
2023/06/28 04:45:35;;;;;;;6.70;4.43;;;;;;;;;;4995090;28;20289;-77
2023/06/28 04:48:02;;;;;;;7.33;4.70;;;;;;;;;;4993998;28;20197;-77
2023/06/28 04:50:31;;;;;;;6.60;4.47;;;;;;;;;;4994770;28;20281;-77
2023/06/28 04:52:58;;;;;;;7.80;4.77;;;;;;;;;;4994520;28;20257;-78
2023/06/28 04:55:32;;;;;;;6.97;4.47;;;;;;;;;;4989196;28;20210;-77
2023/06/28 04:57:59;;;;;;;5.40;4.03;;;;;;;;;;4975184;28;20624;-76
2023/06/28 05:00:27;;;;;;;5.37;3.93;;;;;;;;;;4974477;28;20296;-77
2023/06/28 05:02:56;;;;;;;8.63;4.47;;;;;;;;;;4975189;28;20238;-77
2023/06/28 05:05:23;;;;;;;6.67;4.50;;;;;;;;;;4974909;28;20202;-77
2023/06/28 05:07:52;;;;;;;6.70;4.77;;;;;;;;;;4975065;28;20311;-76
2023/06/28 05:10:19;;;;;;;6.90;4.53;;;;;;;;;;4974339;28;20198;-78
2023/06/28 05:12:48;;;;;;;8.40;4.80;;;;;;;;;;4973772;28;20277;-76
2023/06/28 05:15:16;;;;;;;10.67;4.83;;;;;;;;;;4966388;28;20288;-77
2023/06/28 05:17:43;;;;;;;6.73;5.30;;;;;;;;;;4974212;28;20203;-76
2023/06/28 05:20:10;;;;;;;8.07;5.10;;;;;;;;;;4974789;28;20293;-77
2023/06/28 05:22:44;;;;;;;10.23;5.27;;;;;;;;;;4974434;28;20309;-77
2023/06/28 05:25:13;;;;;;;13.63;5.47;;;;;;;;;;4975014;28;20218;-77
2023/06/28 05:27:40;;;;;;;9.10;5.20;;;;;;;;;;4974368;28;20643;-77
2023/06/28 05:30:09;;;;;;;8.63;4.90;;;;;;;;;;4974102;28;20301;-76
2023/06/28 05:32:36;;;;;;;5.60;4.50;;;;;;;;;;4973912;28;20230;-76
2023/06/28 05:35:05;;;;;;;8.33;4.90;;;;;;;;;;4974489;28;20286;-78
2023/06/28 05:37:32;;;;;;;6.60;4.70;;;;;;;;;;4973906;28;20226;-77
2023/06/28 05:39:59;;;;;;;7.57;4.77;;;;;;;;;;4974115;28;20655;-78
2023/06/28 05:42:28;;;;;;;9.80;5.50;;;;;;;;;;4974360;28;20781;-78
2023/06/28 05:44:55;;;;;;;8.73;5.17;;;;;;;;;;4973872;28;20198;-77
2023/06/28 05:47:22;;;;;;;7.37;4.90;;;;;;;;;;4973828;28;20290;-77
2023/06/28 05:49:49;;;;;;;7.73;4.73;;;;;;;;;;4974572;28;20235;-79
2023/06/28 05:52:16;;;;;;;7.07;4.80;;;;;;;;;;4974142;28;20207;-78
2023/06/28 05:54:43;;;;;;;9.50;4.87;;;;;;;;;;4974149;28;20226;-78
2023/06/28 05:57:11;;;;;;;8.27;4.40;;;;;;;;;;4968028;28;20691;-78
2023/06/28 05:59:39;;;;;;;6.17;4.23;;;;;;;;;;4967020;28;20280;-79
2023/06/28 06:02:07;;;;;;;8.30;4.50;;;;;;;;;;4973526;28;20257;-79
2023/06/28 06:04:35;;;;;;;7.00;4.00;;;;;;;;;;4972165;28;20262;-78
2023/06/28 06:07:02;;;;;;;6.13;4.33;;;;;;;;;;4954770;28;20291;-78
2023/06/28 06:09:30;;;;;;;6.53;4.30;;;;;;;;;;4954274;29;20202;-76
2023/06/28 06:11:57;;;;;;;7.93;4.20;;;;;;;;;;4954361;28;20250;-78
2023/06/28 06:14:24;;;;;;;7.80;3.90;;;;;;;;;;4966020;28;20233;-77
2023/06/28 06:16:54;;;;;;;7.57;3.80;;;;;;;;;;4992995;28;20292;-76
2023/06/28 06:19:21;;;;;;;8.25;3.70;;;;;;;;;;4992570;28;20221;-76
2023/06/28 06:21:48;;;;;;;6.63;4.10;;;;;;;;;;4993185;28;20198;-76
2023/06/28 06:24:16;;;;;;;6.60;3.70;;;;;;;;;;4992925;28;20240;-77
2023/06/28 06:26:43;;;;;;;7.55;3.50;;;;;;;;;;4992946;28;20194;-78
2023/06/28 06:29:10;;;;;;;7.30;3.67;;;;;;;;;;4992313;28;20730;-80
2023/06/28 06:31:37;;;;;;;5.15;3.22;;;;;;;;;;4979470;28;20230;-76
2023/06/28 06:34:06;;;;;;;6.65;3.28;;;;;;;;;;4973266;28;20237;-77
2023/06/28 06:36:33;;;;;;;5.10;3.10;;;;;;;;;;4973293;28;20297;-77
2023/06/28 06:39:00;;;;;;;8.38;3.38;;;;;;;;;;4973592;28;20931;-77
2023/06/28 06:41:28;;;;;;;7.28;3.20;;;;;;;;;;4973252;28;20209;-77
2023/06/28 06:43:55;;;;;;;3.95;2.53;;;;;;;;;;4972876;28;20225;-77
2023/06/28 06:46:22;;;;;;;6.45;2.50;;;;;;;;;;4973638;28;20198;-78
2023/06/28 06:48:50;;;;;;;11.48;2.97;;;;;;;;;;4972865;28;20285;-78
2023/06/28 06:51:18;;;;;;;7.18;3.00;;;;;;;;;;4972893;28;20659;-77
2023/06/28 06:53:45;;;;;;;3.65;2.72;;;;;;;;;;4973129;28;20207;-77
2023/06/28 06:56:12;;;;;;;4.30;2.10;;;;;;;;;;4972556;28;20233;-79
2023/06/28 06:58:40;;;;;;;5.40;2.50;;;;;;;;;;4973144;28;20289;-78
2023/06/28 07:01:07;;;;;;;6.18;2.35;;;;;;;;;;4972902;28;20298;-78
2023/06/28 07:03:34;;;;;;;3.95;2.38;;;;;;;;;;4972459;28;20328;-77
2023/06/28 07:06:02;;;;;;;4.22;2.40;;;;;;;;;;4957543;28;20279;-77
2023/06/28 07:08:31;;;;;;;4.47;2.30;;;;;;;;;;4953953;28;20282;-78
2023/06/28 07:10:58;;;;;;;5.53;2.40;;;;;;;;;;4952478;28;20737;-79
2023/06/28 07:13:25;;;;;;;5.03;2.08;;;;;;;;;;4953429;29;20225;-78
2023/06/28 07:15:52;;;;;;;4.18;2.25;;;;;;;;;;4975933;28;20206;-79
2023/06/28 07:18:20;;;;;;;3.28;1.88;;;;;;;;;;4992107;28;20292;-78
2023/06/28 07:20:47;;;;;;;6.35;2.40;;;;;;;;;;4992001;28;20253;-79
2023/06/28 07:23:14;;;;;;;4.38;2.30;;;;;;;;;;4992020;28;20204;-79
2023/06/28 07:25:42;;;;;;;3.85;1.95;;;;;;;;;;4992137;28;20225;-78
2023/06/28 07:28:10;;;;;;;8.63;2.20;;;;;;;;;;4991805;28;20194;-78
2023/06/28 07:30:53;;;;;;;4.70;2.03;;;;;;;;;;4992283;28;20233;-78
2023/06/28 07:33:20;;;;;;;3.85;2.00;;;;;;;;;;4991643;28;20693;-78
2023/06/28 07:35:47;;;;;;;7.10;2.30;;;;;;;;;;4991691;28;20659;-78
2023/06/28 07:38:15;;;;;;;5.45;2.15;;;;;;;;;;4991698;28;20644;-77
2023/06/28 07:40:43;;;;;;;5.07;2.10;;;;;;;;;;4991414;28;20276;-77
2023/06/28 07:43:10;;;;;;;5.93;2.20;;;;;;;;;;4991926;28;20297;-78
2023/06/28 07:45:37;;;;;;;3.63;2.10;;;;;;;;;;4991953;28;20728;-77
2023/06/28 07:48:05;;;;;;;4.75;1.98;;;;;;;;;;4991956;28;20297;-77
2023/06/28 07:50:32;;;;;;;5.28;2.10;;;;;;;;;;4991825;28;20257;-77
2023/06/28 07:52:59;;;;;;;3.85;2.10;;;;;;;;;;4992009;28;20232;-79
2023/06/28 07:55:27;;;;;;;7.18;2.60;;;;;;;;;;4991353;28;20202;-78
2023/06/28 07:57:56;;;;;;;8.30;2.40;;;;;;;;;;4991829;28;20204;-78
2023/06/28 08:00:23;;;;;;;6.38;2.67;;;;;;;;;;4992108;28;20294;-78
2023/06/28 08:02:51;;;;;;;6.40;3.08;;;;;;;;;;4991413;28;20730;-78
2023/06/28 08:05:19;;;;;;;6.85;2.95;;;;;;;;;;4981925;28;20317;-78
2023/06/28 08:07:46;;;;;;;5.13;2.90;;;;;;;;;;4972500;28;20273;-76
2023/06/28 08:10:13;;;;;;;8.32;3.47;;;;;;;;;;4971946;28;20293;-77
2023/06/28 08:12:41;;;;;;;7.18;3.35;;;;;;;;;;4972378;28;20281;-78
2023/06/28 08:15:10;;;;;;;5.07;3.30;;;;;;;;;;4977754;28;20289;-78
2023/06/28 08:17:37;;;;;;;7.30;3.70;;;;;;;;;;4991670;28;20233;-77
2023/06/28 08:20:05;;;;;;;6.35;3.20;;;;;;;;;;4991657;28;20194;-77
2023/06/28 08:22:32;;;;;;;9.23;3.97;;;;;;;;;;4992842;28;20197;-77
2023/06/28 08:24:59;;;;;;;6.25;3.67;;;;;;;;;;4994839;28;20320;-79
2023/06/28 08:27:26;;;;;;;8.02;3.65;;;;;;;;;;4988457;28;20783;-80
2023/06/28 08:29:53;;;;;;;8.32;3.50;;;;;;;;;;4966386;28;20285;-79
2023/06/28 08:32:22;;;;;;;7.00;3.78;;;;;;;;;;4967199;28;20202;-79
2023/06/28 08:34:49;;;;;;;6.00;3.45;;;;;;;;;;4956148;28;20210;-79
2023/06/28 08:37:16;;;;;;;6.80;3.90;;;;;;;;;;4969620;28;20285;-79
2023/06/28 08:39:44;;;;;;;7.85;4.13;;;;;;;;;;4974680;28;20285;-80
2023/06/28 08:42:11;;;;;;;7.38;4.13;;;;;;;;;;4975069;28;20289;-80
2023/06/28 08:44:39;;;;;;;7.47;4.63;;;;;;;;;;4970720;28;20759;-81
2023/06/28 08:47:07;;;;;;;7.78;4.25;;;;;;;;;;4958704;28;20200;-81
2023/06/28 08:49:36;;;;;;;6.57;4.05;;;;;;;;;;4975361;28;20203;-80
2023/06/28 08:52:04;;;;;;;7.63;4.15;;;;;;;;;;4974964;28;20659;-79
2023/06/28 08:54:32;;;;;;;6.25;3.53;;;;;;;;;;4974974;28;20201;-80
2023/06/28 08:57:00;;;;;;;7.80;4.70;;;;;;;;;;4975246;28;20205;-80
2023/06/28 08:59:28;;;;;;;6.32;3.65;;;;;;;;;;4974804;28;20666;-81
2023/06/28 09:01:56;;;;;;;6.53;3.92;;;;;;;;;;4974664;28;20195;-80
2023/06/28 09:04:24;;;;;;;14.20;4.28;;;;;;;;;;4975074;28;20257;-80
2023/06/28 09:06:53;;;;;;;6.30;3.95;;;;;;;;;;4974783;28;20208;-79
2023/06/28 09:09:20;;;;;;;8.73;4.38;;;;;;;;;;4974913;28;20199;-80
2023/06/28 09:11:48;;;;;;;7.80;4.60;;;;;;;;;;4975156;28;20770;-79
2023/06/28 09:14:15;;;;;;;6.20;3.83;;;;;;;;;;4960185;28;20294;-79
2023/06/28 09:16:42;;;;;;;8.38;4.40;;;;;;;;;;4991121;28;20198;-79
2023/06/28 09:19:09;;;;;;;7.75;4.25;;;;;;;;;;4994209;28;20198;-79
2023/06/28 09:21:36;;;;;;;7.22;4.10;;;;;;;;;;4993993;28;20297;-79
2023/06/28 09:24:11;;;;;;;7.40;4.10;;;;;;;;;;4994054;28;20637;-80
2023/06/28 09:26:38;;;;;;;6.03;4.03;;;;;;;;;;4994369;28;20300;-81
2023/06/28 09:29:08;;;;;;;7.75;4.55;;;;;;;;;;4993971;28;20208;-80
2023/06/28 09:31:39;;;;;;;6.55;4.53;;;;;;;;;;4994150;28;20201;-81
2023/06/28 09:34:07;;;;;;;7.00;4.75;;;;;;;;;;4993170;28;20198;-80
2023/06/28 09:36:35;;;;;;;6.43;4.40;;;;;;;;;;4983084;28;20297;-80
2023/06/28 09:39:04;;;;;;;8.80;4.80;;;;;;;;;;4974766;28;20659;-80
2023/06/28 09:41:40;;;;;;;7.85;4.72;;;;;;;;;;4974418;28;20206;-80
2023/06/28 09:44:09;;;;;;;7.20;4.90;;;;;;;;;;4974476;28;20229;-80
2023/06/28 09:46:36;;;;;;;8.10;4.80;;;;;;;;;;4974321;28;20198;-81
2023/06/28 09:49:03;;;;;;;7.53;4.68;;;;;;;;;;4954914;28;20673;-81
2023/06/28 09:51:30;;;;;;;8.80;5.35;;;;;;;;;;4954501;28;20195;-81
2023/06/28 09:53:58;;;;;;;7.13;4.65;;;;;;;;;;4954809;28;20203;-80
2023/06/28 09:56:34;;;;;;;7.82;5.20;;;;;;;;;;4954668;28;20668;-79
2023/06/28 09:59:03;;;;;;;6.82;5.05;;;;;;;;;;4954883;28;20194;-81
2023/06/28 10:01:30;;;;;;;7.47;5.13;;;;;;;;;;4954669;28;20294;-79
2023/06/28 10:03:59;;;;;;;6.75;5.60;;;;;;;;;;4954431;28;20700;-80
2023/06/28 10:06:27;;;;;;;9.57;6.10;;;;;;;;;;4954204;28;20673;-80
2023/06/28 10:08:54;;;;;;;7.82;5.88;;;;;;;;;;4954616;28;20203;-80
2023/06/28 10:11:22;;;;;;;10.50;5.70;;;;;;;;;;4954340;28;20199;-80
2023/06/28 10:13:50;;;;;;;7.35;6.40;;;;;;;;;;4954271;28;20751;-80
2023/06/28 10:16:20;;;;;;;8.57;6.60;;;;;;;;;;4983152;28;20198;-81
2023/06/28 10:18:47;;;;;;;10.27;6.05;;;;;;;;;;4993443;28;20194;-81
2023/06/28 10:21:14;;;;;;;8.85;6.82;;;;;;;;;;4992676;28;20201;-80
2023/06/28 10:23:43;;;;;;;9.98;6.70;;;;;;;;;;4990187;28;20225;-80
2023/06/28 10:26:10;;;;;;;7.82;6.78;;;;;;;;;;4973698;28;20230;-81
2023/06/28 10:28:39;;;;;;;11.52;8.80;;;;;;;;;;4973681;28;20206;-80
2023/06/28 10:31:07;;;;;;;11.75;9.10;;;;;;;;;;4973264;28;20221;-79
2023/06/28 10:33:37;;;;;;;12.60;9.38;;;;;;;;;;4971810;28;20230;-78
2023/06/28 10:36:05;;;;;;;12.52;9.10;;;;;;;;;;4966950;28;20203;-79
2023/06/28 10:38:33;;;;;;;11.68;9.27;;;;;;;;;;4952909;28;20203;-78
2023/06/28 10:41:01;;;;;;;11.93;9.85;;;;;;;;;;4952234;28;20211;-78
2023/06/28 10:43:29;;;;;;;12.57;10.13;;;;;;;;;;4957878;28;20198;-78
2023/06/28 10:45:56;;;;;;;12.35;9.68;;;;;;;;;;4973207;28;20321;-79
2023/06/28 10:48:24;;;;;;;11.55;10.32;;;;;;;;;;4972675;28;20212;-79
2023/06/28 10:50:53;;;;;;;12.43;10.70;;;;;;;;;;4973053;28;20194;-80
2023/06/28 10:53:21;;;;;;;12.15;10.02;;;;;;;;;;4970895;28;20294;-80
2023/06/28 10:56:07;;;;;;;13.48;10.45;;;;;;;;;;4962982;28;20199;-80
2023/06/28 10:58:37;;;;;;;12.77;10.35;;;;;;;;;;4958160;28;20683;-79
2023/06/28 11:01:06;;;;;;;12.43;10.10;;;;;;;;;;4969326;28;20200;-80
2023/06/28 11:03:38;;;;;;;12.88;9.50;;;;;;;;;;4971652;28;20242;-80
2023/06/28 11:06:07;;;;;;;11.38;9.18;;;;;;;;;;4970364;28;20707;-80
2023/06/28 11:08:38;;;;;;;12.90;9.50;;;;;;;;;;4972073;28;20203;-79
2023/06/28 11:11:06;;;;;;;14.38;10.85;;;;;;;;;;4971425;28;20228;-80
2023/06/28 11:13:33;;;;;;;13.90;10.23;;;;;;;;;;4972919;28;20260;-80
2023/06/28 11:16:08;;;;;;;14.95;11.82;;;;;;;;;;4970209;28;20226;-80
2023/06/28 11:18:35;;;;;;;14.82;12.25;;;;;;;;;;4968465;28;20223;-80
2023/06/28 11:21:03;;;;;;;12.07;10.73;;;;;;;;;;4970974;28;20276;-79
2023/06/28 11:23:36;;;;;;;14.02;11.15;;;;;;;;;;4970595;28;20273;-79
2023/06/28 11:26:04;;;;;;;13.13;10.98;;;;;;;;;;4971194;28;20230;-79
2023/06/28 11:28:32;;;;;;;13.55;11.18;;;;;;;;;;4969546;28;20642;-78
2023/06/28 11:31:13;;;;;;;13.75;10.57;;;;;;;;;;4963651;28;20206;-79
2023/06/28 11:33:41;;;;;;;13.70;11.13;;;;;;;;;;4957508;28;20195;-80
2023/06/28 11:36:08;;;;;;;15.00;11.10;;;;;;;;;;4953124;28;20210;-79
2023/06/28 11:38:37;;;;;;;19.25;12.50;;;;;;;;;;4956167;28;20196;-79
2023/06/28 11:41:05;;;;;;;14.43;11.23;;;;;;;;;;4970979;28;20290;-79
2023/06/28 11:43:32;;;;;;;13.13;11.35;;;;;;;;;;4971668;28;20199;-80
2023/06/28 11:45:59;;;;;;;12.18;10.70;;;;;;;;;;4954828;28;20309;-79
2023/06/28 11:48:26;;;;;;;14.38;11.95;;;;;;;;;;4963555;28;20224;-78
2023/06/28 11:50:57;;;;;;;14.93;12.38;;;;;;;;;;4954315;28;20217;-79
2023/06/28 11:53:25;;;;;;;16.15;13.15;;;;;;;;;;4951496;28;20209;-78
2023/06/28 11:55:54;;;;;;;16.15;13.73;;;;;;;;;;4964434;28;20202;-79
2023/06/28 11:58:31;;;;;;;18.73;15.52;;;;;;;;;;4970452;28;20632;-79
2023/06/28 12:00:59;;;;;;;20.88;14.63;;;;;;;;;;4972994;28;20241;-79
2023/06/28 12:03:36;;;;;;;16.00;13.57;;;;;;;;;;4965176;28;20270;-78
2023/06/28 12:06:04;;;;;;;16.02;14.02;;;;;;;;;;4971958;28;20248;-79
2023/06/28 12:08:35;;;;;;;15.73;13.98;;;;;;;;;;4965234;28;20203;-78
2023/06/28 12:11:10;;;;;;;14.93;13.00;;;;;;;;;;4955998;29;20209;-78
2023/06/28 12:13:37;;;;;;;16.48;12.13;;;;;;;;;;4972395;28;20202;-78
2023/06/28 12:16:14;;;;;;;13.85;11.63;;;;;;;;;;4973369;28;20660;-79
2023/06/28 12:18:57;;;;;;;16.15;12.82;;;;;;;;;;4970305;28;20209;-79
2023/06/28 12:21:25;;;;;;;20.02;14.05;;;;;;;;;;4973321;28;20199;-78
2023/06/28 12:23:53;;;;;;;18.73;15.15;;;;;;;;;;4955995;29;20375;-78
2023/06/28 12:26:23;;;;;;;20.42;17.08;;;;;;;;;;4955414;28;20457;-78
2023/06/28 12:28:51;;;;;;;21.80;15.40;;;;;;;;;;4955887;29;20205;-77
2023/06/28 12:31:18;;;;;;;20.17;16.92;;;;;;;;;;4969896;28;20305;-78
2023/06/28 12:33:46;;;;;;;20.50;17.88;;;;;;;;;;4955842;28;20253;-77
2023/06/28 12:36:15;;;;;;;23.52;20.20;;;;;;;;;;4960786;28;20253;-78
2023/06/28 12:38:45;;;;;;;26.48;20.92;;;;;;;;;;4969449;28;20275;-78
2023/06/28 12:41:14;;;;;;;29.50;23.13;;;;;;;;;;4958567;28;20207;-78
2023/06/28 12:43:43;;;;;;;27.42;23.13;;;;;;;;;;4973068;28;20575;-79
2023/06/28 12:46:11;;;;;;;29.45;22.42;;;;;;;;;;4967206;28;20250;-78
2023/06/28 12:48:39;;;;;;;29.58;22.33;;;;;;;;;;4965944;28;20224;-80
2023/06/28 12:51:06;;;;;;;29.50;23.27;;;;;;;;;;4969168;28;20277;-79
2023/06/28 12:53:33;;;;;;;32.80;22.80;;;;;;;;;;4966721;28;20298;-78
2023/06/28 12:56:01;;;;;;;30.35;21.98;;;;;;;;;;4954555;28;20540;-79
2023/06/28 12:58:28;;;;;;;26.98;21.83;;;;;;;;;;4954541;28;20298;-79
2023/06/28 13:00:57;;;;;;;28.50;21.15;;;;;;;;;;4971280;28;20294;-78
2023/06/28 13:03:25;;;;;;;23.67;20.92;;;;;;;;;;4972576;28;20326;-79
2023/06/28 13:05:53;;;;;;;29.50;22.60;;;;;;;;;;4974039;28;20223;-79
2023/06/28 13:08:20;;;;;;;28.23;21.60;;;;;;;;;;4974461;28;20352;-79
2023/06/28 13:10:47;;;;;;;26.75;21.83;;;;;;;;;;4974606;28;20675;-78
2023/06/28 13:13:15;;;;;;;26.80;20.55;;;;;;;;;;4957966;28;20248;-79
2023/06/28 13:15:42;;;;;;;26.73;21.20;;;;;;;;;;4974500;28;20259;-79
2023/06/28 13:18:10;;;;;;;26.95;22.92;;;;;;;;;;4974910;28;20672;-78
2023/06/28 13:20:38;;;;;;;28.60;23.30;;;;;;;;;;4974035;28;20286;-79
2023/06/28 13:23:05;;;;;;;31.08;24.52;;;;;;;;;;4974382;28;20230;-79
2023/06/28 13:25:32;;;;;;;39.53;27.45;;;;;;;;;;4974259;28;20261;-79
2023/06/28 13:27:59;;;;;;;30.17;24.88;;;;;;;;;;4973075;28;20202;-78
2023/06/28 13:30:26;;;;;;;29.02;23.67;;;;;;;;;;4974416;28;20278;-79
2023/06/28 13:32:54;;;;;;;26.83;23.20;;;;;;;;;;4973696;28;20202;-78
2023/06/28 13:35:23;;;;;;;30.10;23.80;;;;;;;;;;4973527;28;20675;-79
2023/06/28 13:37:50;;;;;;;29.70;22.65;;;;;;;;;;4967835;28;20204;-79
2023/06/28 13:40:18;;;;;;;26.02;21.25;;;;;;;;;;4974002;28;20203;-78
2023/06/28 13:42:46;;;;;;;28.20;22.63;;;;;;;;;;4972932;28;20294;-79
2023/06/28 13:45:13;;;;;;;28.25;22.25;;;;;;;;;;4973924;28;20874;-79
2023/06/28 13:47:40;;;;;;;26.52;21.80;;;;;;;;;;4973132;28;20240;-78
2023/06/28 13:50:08;;;;;;;30.05;23.02;;;;;;;;;;4972500;28;20202;-76
2023/06/28 13:52:36;;;;;;;28.05;22.52;;;;;;;;;;4954609;28;20246;-78
2023/06/28 13:55:05;;;;;;;27.35;22.08;;;;;;;;;;4954129;28;20646;-79
2023/06/28 13:57:32;;;;;;;29.33;22.25;;;;;;;;;;4959654;28;20633;-78
2023/06/28 13:59:59;;;;;;;27.52;21.38;;;;;;;;;;4973602;28;20237;-78
2023/06/28 14:02:27;;;;;;;26.77;21.30;;;;;;;;;;4972657;28;20258;-78
2023/06/28 14:04:54;;;;;;;26.40;22.40;;;;;;;;;;4973440;28;20199;-78
2023/06/28 14:07:21;;;;;;;28.20;22.13;;;;;;;;;;4973361;28;20313;-78
2023/06/28 14:09:50;;;;;;;27.90;22.30;;;;;;;;;;4964427;28;20285;-78
2023/06/28 14:12:17;;;;;;;28.55;22.77;;;;;;;;;;4953903;28;20756;-78
2023/06/28 14:14:44;;;;;;;29.15;24.05;;;;;;;;;;4958152;28;20262;-78
2023/06/28 14:17:11;;;;;;;30.50;24.48;;;;;;;;;;4982916;28;20639;-78
2023/06/28 14:19:39;;;;;;;28.27;23.52;;;;;;;;;;4972564;28;20698;-77
2023/06/28 14:22:06;;;;;;;29.40;25.13;;;;;;;;;;4972914;28;20234;-78
2023/06/28 14:24:33;;;;;;;29.80;24.92;;;;;;;;;;4973284;28;20281;-76
2023/06/28 14:27:02;;;;;;;34.63;25.75;;;;;;;;;;4953714;28;20234;-77
2023/06/28 14:29:29;;;;;;;31.30;23.95;;;;;;;;;;4953291;29;20632;-78
2023/06/28 14:31:56;;;;;;;30.92;24.35;;;;;;;;;;4953466;28;20206;-78
2023/06/28 14:34:23;;;;;;;27.63;23.75;;;;;;;;;;4953765;28;20203;-78
2023/06/28 14:36:50;;;;;;;30.08;25.05;;;;;;;;;;4953664;29;20199;-78
2023/06/28 14:39:18;;;;;;;28.65;24.50;;;;;;;;;;4953325;28;20239;-77
2023/06/28 14:41:46;;;;;;;31.23;25.17;;;;;;;;;;4954270;28;20203;-77